03 Apr, 2022

2022 Europe Triathlon Cup and Mediterranean Championships Melilla : Elite Women

Pos First Name Last Name YOB Country Start
Num
Time Swim
2500m
T1 Bike
18.8km
T2 Run
5km
1 Cassandre Beaugrand 1997 country flag FRA 2 00:52:00 00:06:57 00:00:20 00:28:12 00:00:19 00:16:10
2 Leonie Periault 1994 country flag FRA 1 00:52:45 00:06:59 00:00:19 00:28:12 00:00:24 00:16:49
3 Alberte Kjær Pedersen 1998 country flag DEN 3 00:52:56 00:06:58 00:00:18 00:28:12 00:00:20 00:17:06
4 Cathia Schär 2001 country flag SUI 18 00:53:08 00:07:11 00:00:20 00:27:55 00:00:25 00:17:15
5 Tanja Neubert 2000 country flag GER 26 00:53:17 00:07:17 00:00:20 00:27:52 00:00:20 00:17:25
6 Iona Miller 1999 country flag GBR 20 00:53:24 00:07:10 00:00:21 00:27:57 00:00:20 00:17:33
7 Valerie Barthelemy 1991 country flag BEL 8 00:53:31 00:07:11 00:00:20 00:27:57 00:00:21 00:17:41
8 Nora Gmür 2001 country flag SUI 16 00:53:35 00:07:06 00:00:21 00:28:00 00:00:19 00:17:47
9 Edda Hannesdottir 1994 country flag ISL 25 00:53:40 00:07:13 00:00:21 00:27:55 00:00:21 00:17:47
10 Noelia Juan 1996 country flag ESP 17 00:53:46 00:07:08 00:00:22 00:28:39 00:00:24 00:17:11
11 Mathilde Gautier 1995 country flag FRA 35 00:53:50 00:07:25 00:00:24 00:28:16 00:00:24 00:17:19
12 Marta Pintanel Raymundo 1999 country flag ESP 23 00:53:56 00:07:14 00:00:20 00:28:34 00:00:23 00:17:23
13 Daisy Davies 2002 country flag GBR 47 00:54:04 00:07:20 00:00:19 00:28:27 00:00:20 00:17:36
14 Lisa Perterer 1991 country flag AUT 7 00:54:05 00:07:27 00:00:22 00:28:18 00:00:24 00:17:32
15 Melanie Santos 1995 country flag POR 5 00:54:11 00:07:14 00:00:19 00:28:33 00:00:24 00:17:38
16 Yuko Takahashi 1991 country flag JPN 4 00:54:14 00:07:35 00:00:21 00:28:09 00:00:22 00:17:44
17 Paula Del Pozo Borrachero 2002 country flag ESP 39 00:54:17 00:07:15 00:00:21 00:28:32 00:00:24 00:17:42
18 Costanza Arpinelli 2000 country flag ITA 11 00:54:21 00:07:20 00:00:20 00:28:29 00:00:23 00:17:46
19 Charlotte Faivre 2002 country flag FRA 51 00:54:26 00:07:37 00:00:22 00:28:05 00:00:24 00:17:57
20 María Casals Mojica 2002 country flag ESP 24 00:54:36 00:07:14 00:00:20 00:29:01 00:00:21 00:17:38
21 Barbara De Koning 2002 country flag NED 21 00:54:48 00:07:31 00:00:21 00:28:43 00:00:23 00:17:48
22 Eva Daniels 2001 country flag LUX 28 00:54:53 00:07:14 00:00:21 00:29:00 00:00:23 00:17:53
23 Natalia Castro Santos 2002 country flag ESP 42 00:54:57 00:07:33 00:00:22 00:28:42 00:00:21 00:17:57
24 Iria Rodriguez 1999 country flag ESP 22 00:55:04 00:07:33 00:00:21 00:28:35 00:00:27 00:18:06
25 Robin Dreyling 2002 country flag NED 41 00:55:09 00:07:33 00:00:20 00:28:40 00:00:25 00:18:07
26 Maria Tomé 2001 country flag POR 10 00:55:13 00:07:14 00:00:23 00:29:00 00:00:26 00:18:08
27 Sandra Dodet 1996 country flag FRA 6 00:55:17 00:07:01 00:00:20 00:30:04 00:00:24 00:17:26
28 Candice Denizot 2002 country flag FRA 31 00:55:26 00:07:18 00:00:21 00:29:55 00:00:18 00:17:33
29 Iratxe Arenal Arribas 2001 country flag ESP 29 00:55:30 00:07:20 00:00:20 00:29:55 00:00:15 00:17:40
30 Bianca Bogen 1998 country flag GER 27 00:55:42 00:07:45 00:00:21 00:28:23 00:00:21 00:18:50
31 Zuzana Michalickova 2002 country flag SVK 19 00:56:14 00:07:42 00:00:21 00:29:39 00:00:23 00:18:07
32 Asia Mercatelli 2000 country flag ITA 36 00:56:26 00:07:21 00:00:21 00:29:02 00:00:22 00:19:19
33 Sofía Aguayo Mauri 1997 country flag ESP 30 00:56:29 00:07:21 00:00:20 00:29:45 00:00:24 00:18:38
34 Raquel Alzaga Criado 2002 country flag ESP 46 00:56:34 00:07:41 00:00:21 00:29:35 00:00:22 00:18:34
35 Clara Aulinas Prat 2001 country flag ESP 56 00:56:49 00:07:30 00:00:25 00:29:48 00:00:26 00:18:39
36 Aleisha Wesley 1999 country flag AUS 34 00:57:07 00:07:51 00:00:18 00:29:27 00:00:26 00:19:03
37 Jolien Vermeylen 1994 country flag BEL 15 00:57:11 00:07:13 00:00:21 00:28:56 00:00:21 00:20:18
38 Sharon Spimi 1997 country flag ITA 14 00:57:16 00:07:35 00:00:22 00:28:33 00:00:33 00:20:12
39 Lina Völker 1998 country flag GER 33 00:57:55 00:08:00 00:00:19 00:29:13 00:00:21 00:20:00
40 Jasmin Weber 1998 country flag SUI 40 00:59:03 00:07:44 00:00:23 00:29:30 00:00:24 00:21:00
41 Erin Mcconnell 2000 country flag IRL 37 00:59:12 00:07:37 00:00:22 00:31:27 00:00:24 00:19:18
42 Giada Stegani 2002 country flag ITA 57 01:00:08 00:07:46 00:00:23 00:32:14 00:00:22 00:19:21
43 Laura Rodríguez Salinas 1999 country flag ESP 45 01:03:01 00:08:20 00:00:26 00:32:52 00:00:24 00:20:57
44 Ronnie Zawlik 2000 country flag ISR 48 01:03:45 00:08:41 00:00:24 00:33:08 00:00:25 00:21:06
DNF Cecilia Santamaria Surroca 1997 country flag ESP 12 00:07:34 00:00:20 00:29:46 00:00:25 00:00:00
DNF Kim Van 't Verlaat 2001 country flag NED 38 00:08:11 00:00:24 00:29:04 00:00:24 00:00:00
DNF Lea Coninx 1998 country flag FRA 9 00:07:05 00:00:20 00:00:00 00:00:00 00:00:00
DNF Raquel Arostegui Gonzalez 1993 country flag ESP 43 00:07:39 00:00:24 00:00:00 00:00:00 00:00:00
DNF Yaiza Saiz Serrano 2000 country flag ESP 44 00:07:32 00:00:24 00:00:00 00:00:00 00:00:00
DNF Francesca Crestani 2000 country flag ITA 49 00:08:01 00:00:29 00:00:00 00:00:00 00:00:00
DNF Marta Romance 2000 country flag ESP 50 00:07:15 00:00:22 00:00:00 00:00:00 00:00:00
DNF Sophia Weiler 2002 country flag GER 53 00:07:29 00:00:21 00:00:00 00:00:00 00:00:00
DNF Lucia Acosta Suarez 2002 country flag ESP 54 00:07:45 00:00:22 00:00:00 00:00:00 00:00:00
DNF Danica Bonello Spiteri 1981 country flag MLT 55 DNF 00:08:41 00:00:25 00:00:00 00:00:00 00:00:00

Technical Delegate: Andreas Galanos/GRE. Head Referee: Inmaculada Ruiz Varea/ESP.
Competition Jury: Andreas Galanos/GRE, Herwig Grabner/AUT, Alicia García/ESP.
Due to the weather conditions, the event changed to a Duathlon.
Distances: Run 2.5 km (1 lap), Bike 18.8 km (4 laps), Run 5 km (2 laps)
Air temperature: 15ºC.